Time;durP1;ratioP1;P1;durP2;ratioP2;P2;SDS_P1;SDS_P2;PMS_P1;PMS_P2;Temp;Humidity;BMP_temperature;BMP_pressure;BME280_temperature;BME280_humidity;BME280_pressure;Samples;Min_cycle;Max_cycle;Signal;HPM_P1;HPM_P2
2020/12/22 00:01:37;;;;;;;33.55;16.48;;;;;;;-2.87;100.00;100835.50;1795239;79;22184;-71
2020/12/22 00:04:05;;;;;;;30.72;17.82;;;;;;;-2.89;100.00;100829.09;1795493;79;21582;-71
2020/12/22 00:06:34;;;;;;;34.00;17.20;;;;;;;-2.88;100.00;100833.36;1782686;79;20912;-72
2020/12/22 00:09:05;;;;;;;37.23;19.75;;;;;;;-2.90;100.00;100827.41;1777927;79;21082;-71
2020/12/22 00:11:34;;;;;;;32.28;18.02;;;;;;;-2.90;100.00;100805.08;1779962;79;20936;-70
2020/12/22 00:14:01;;;;;;;35.48;18.87;;;;;;;-2.89;100.00;100827.77;1782616;79;21644;-71
2020/12/22 00:16:35;;;;;;;41.15;18.42;;;;;;;-2.90;100.00;100828.72;1792259;79;21576;-70
2020/12/22 00:19:04;;;;;;;32.35;16.73;;;;;;;-2.89;100.00;100828.23;1750316;79;21569;-72
2020/12/22 00:21:35;;;;;;;35.95;19.75;;;;;;;-2.90;100.00;100828.72;1782445;80;20911;-71
2020/12/22 00:24:03;;;;;;;31.85;19.87;;;;;;;-2.89;100.00;100827.77;1791835;79;21062;-70
2020/12/22 00:26:32;;;;;;;31.87;18.40;;;;;;;-2.87;100.00;100831.07;1785049;79;21274;-71
2020/12/22 00:29:00;;;;;;;33.98;19.02;;;;;;;-2.86;100.00;100830.61;1781126;79;21049;-70
2020/12/22 00:31:28;;;;;;;33.78;18.50;;;;;;;-2.87;100.00;100823.67;1791553;79;21156;-71
2020/12/22 00:33:56;;;;;;;37.35;17.62;;;;;;;-2.90;100.00;100825.27;1790610;79;21026;-70
2020/12/22 00:36:24;;;;;;;28.67;16.73;;;;;;;-2.89;100.00;100829.55;1782545;80;20931;-71
2020/12/22 00:38:53;;;;;;;32.60;17.45;;;;;;;-2.93;100.00;100828.17;1781388;79;22195;-71
2020/12/22 00:41:22;;;;;;;34.88;18.55;;;;;;;-2.94;100.00;100829.98;1784887;79;20896;-70
2020/12/22 00:43:51;;;;;;;31.87;17.25;;;;;;;-2.92;100.00;100835.08;1780956;80;21541;-71
2020/12/22 00:46:19;;;;;;;30.60;16.97;;;;;;;-2.92;100.00;100836.39;1782440;80;20973;-71
2020/12/22 00:48:48;;;;;;;33.85;18.50;;;;;;;-2.92;100.00;100836.39;1785196;79;21199;-71
2020/12/22 00:51:24;;;;;;;35.83;18.85;;;;;;;-2.94;100.00;100839.63;1789261;79;21721;-70
2020/12/22 00:53:54;;;;;;;31.95;18.02;;;;;;;-2.94;100.00;100837.86;1782819;79;21097;-71
2020/12/22 00:56:23;;;;;;;30.72;15.65;;;;;;;-2.97;100.00;100830.22;1795421;79;28067;-69
2020/12/22 00:58:52;;;;;;;39.35;21.60;;;;;;;-2.99;100.00;100834.77;1799533;79;20918;-70
2020/12/22 01:01:21;;;;;;;40.55;22.25;;;;;;;-3.01;100.00;100834.11;1785514;79;21129;-68
2020/12/22 01:03:50;;;;;;;43.63;23.75;;;;;;;-3.00;100.00;100829.67;1778263;79;21196;-71
2020/12/22 01:06:20;;;;;;;37.40;18.92;;;;;;;-3.00;100.00;100828.36;1793822;79;20983;-72
2020/12/22 01:08:48;;;;;;;41.18;22.58;;;;;;;-3.00;100.00;100833.13;1784063;79;21587;-70
2020/12/22 01:11:17;;;;;;;44.30;22.35;;;;;;;-3.02;100.00;100837.19;1777096;80;21058;-69
2020/12/22 01:13:45;;;;;;;;;;;;;;;-3.02;100.00;100835.05;1790560;79;21010;-71
2020/12/22 01:16:13;;;;;;;42.13;18.77;;;;;;;-3.02;100.00;100839.81;1782384;79;21190;-70
2020/12/22 01:18:44;;;;;;;50.23;23.57;;;;;;;-3.03;100.00;100830.28;1782174;79;21014;-71
2020/12/22 01:21:20;;;;;;;47.10;25.02;;;;;;;-3.04;100.00;100844.40;1797213;79;20911;-70
2020/12/22 01:23:49;;;;;;;50.12;25.57;;;;;;;-3.03;100.00;100838.66;1792077;79;20999;-71
2020/12/22 01:26:24;;;;;;;;;;;;;;;-3.03;100.00;100836.03;1784508;79;21157;-69
2020/12/22 01:28:52;;;;;;;55.03;26.20;;;;;;;-3.05;100.00;100830.89;1796216;79;22080;-70
2020/12/22 01:34:09;;;;;;;57.65;28.15;;;;;;;-3.08;100.00;100813.27;1651731;85;21106;-71
2020/12/22 01:36:38;;;;;;;63.20;31.07;;;;;;;-3.07;100.00;100817.55;1641581;86;20984;-70
2020/12/22 01:39:06;;;;;;;58.58;28.65;;;;;;;-3.06;100.00;100808.72;1654900;85;21118;-70
2020/12/22 01:41:37;;;;;;;55.35;26.07;;;;;;;-3.05;100.00;100810.37;1663834;86;21204;-71
2020/12/22 01:44:11;;;;;;;44.38;23.12;;;;;;;-3.06;100.00;100807.41;1650123;84;21138;-71
2020/12/22 01:46:49;;;;;;;49.08;22.85;;;;;;;-3.02;100.00;100803.53;1889981;76;28225;-68
2020/12/22 01:49:21;;;;;;;66.07;29.12;;;;;;;-3.09;100.00;100803.72;1856155;77;20911;-70
2020/12/22 01:51:48;;;;;;;54.27;26.95;;;;;;;-3.11;100.00;100797.77;1863266;77;21192;-69
2020/12/22 01:54:18;;;;;;;47.27;20.85;;;;;;;-3.12;100.00;100803.99;1824048;78;20921;-68
2020/12/22 01:56:46;;;;;;;53.23;25.62;;;;;;;-3.13;100.00;100802.34;1823218;78;20915;-70
2020/12/22 01:59:20;;;;;;;51.50;22.30;;;;;;;-3.15;100.00;100799.84;1823014;78;21044;-71
2020/12/22 02:01:49;;;;;;;55.23;24.92;;;;;;;-3.16;100.00;100798.65;1823128;78;21036;-71
2020/12/22 02:04:18;;;;;;;55.85;26.82;;;;;;;-3.15;100.00;100808.20;1822894;78;21134;-69
2020/12/22 02:06:46;;;;;;;54.00;26.57;;;;;;;-3.14;100.00;100805.92;1791984;78;20977;-69
2020/12/22 02:09:14;;;;;;;;;;;;;;;-3.16;100.00;100804.76;1825760;78;21008;-71
2020/12/22 02:11:45;;;;;;;62.13;27.27;;;;;;;-3.17;100.00;100799.63;1822983;78;20128;-70
2020/12/22 02:14:14;;;;;;;51.85;25.72;;;;;;;-3.18;100.00;100797.98;1822952;78;21047;-70
2020/12/22 02:16:43;;;;;;;60.75;28.05;;;;;;;-3.22;100.00;100793.45;1823093;78;22459;-68
2020/12/22 02:19:17;;;;;;;62.75;26.40;;;;;;;-3.24;100.00;100789.64;1820689;78;20961;-69
2020/12/22 02:21:45;;;;;;;55.65;27.85;;;;;;;-3.23;100.00;100795.75;1822978;78;20986;-69
2020/12/22 02:24:13;;;;;;;59.65;25.10;;;;;;;-3.26;100.00;100789.43;1823207;78;21547;-71
2020/12/22 02:26:41;;;;;;;;;;;;;;;-3.27;100.00;100788.61;1825693;78;21122;-69
2020/12/22 02:29:10;;;;;;;54.70;23.50;;;;;;;-3.27;100.00;100788.61;1823081;78;21775;-70
2020/12/22 02:31:38;;;;;;;51.37;24.45;;;;;;;-3.29;100.00;100785.28;1822995;78;20916;-71
2020/12/22 02:34:07;;;;;;;66.05;28.87;;;;;;;-3.31;100.00;100788.52;1822901;78;20925;-70
2020/12/22 02:36:35;;;;;;;;;;;;;;;-3.30;100.00;100781.49;1825666;78;21479;-72
2020/12/22 02:39:05;;;;;;;68.62;28.23;;;;;;;-3.30;100.00;100782.80;1823149;78;20137;-70
2020/12/22 02:41:33;;;;;;;50.58;25.77;;;;;;;-3.32;100.00;100778.98;1823018;78;21651;-71
2020/12/22 02:44:01;;;;;;;56.65;23.80;;;;;;;-3.32;100.00;100779.48;1823143;78;21515;-71
2020/12/22 02:46:29;;;;;;;61.23;24.47;;;;;;;-3.34;100.00;100780.91;1822989;78;20988;-71
2020/12/22 02:48:58;;;;;;;72.03;30.52;;;;;;;-3.37;100.00;100780.36;1823066;78;20913;-69
2020/12/22 02:51:26;;;;;;;72.22;27.70;;;;;;;-3.40;100.00;100785.40;1822954;78;21527;-70
2020/12/22 02:53:54;;;;;;;79.12;35.40;;;;;;;-3.38;100.00;100790.50;1791653;78;22158;-68
2020/12/22 02:56:22;;;;;;;78.00;36.42;;;;;;;-3.39;100.00;100787.05;1822785;78;20937;-69
2020/12/22 02:58:52;;;;;;;75.72;30.80;;;;;;;-3.41;100.00;100785.52;1822578;78;21004;-68
2020/12/22 03:01:23;;;;;;;73.97;35.60;;;;;;;-3.42;100.00;100786.50;1822366;78;20984;-70
2020/12/22 03:03:51;;;;;;;82.45;34.65;;;;;;;-3.42;100.00;100782.56;1822657;78;20965;-70
2020/12/22 03:06:26;;;;;;;78.90;34.48;;;;;;;-3.43;100.00;100783.02;1822315;78;21633;-69
2020/12/22 03:08:54;;;;;;;76.80;32.70;;;;;;;-3.47;100.00;100777.22;1822342;78;20933;-70
2020/12/22 03:11:22;;;;;;;85.92;36.95;;;;;;;-3.48;100.00;100776.88;1822473;78;21589;-70
2020/12/22 03:13:50;;;;;;;73.50;30.15;;;;;;;-3.47;100.00;100771.14;1805635;78;21149;-69
2020/12/22 03:16:21;;;;;;;84.83;37.13;;;;;;;-3.47;100.00;100771.14;1790103;80;21596;-69
2020/12/22 03:18:50;;;;;;;78.50;32.13;;;;;;;-3.45;100.00;100771.36;1790002;80;22104;-69
2020/12/22 03:21:18;;;;;;;94.75;35.55;;;;;;;-3.52;100.00;100766.77;1789994;80;21066;-70
2020/12/22 03:23:48;;;;;;;94.85;40.17;;;;;;;-3.52;100.00;100766.77;1790018;80;20903;-69
2020/12/22 03:26:18;;;;;;;74.45;31.15;;;;;;;-3.51;100.00;100769.25;1790177;80;21655;-68
2020/12/22 03:28:46;;;;;;;96.40;38.83;;;;;;;-3.51;100.00;100770.56;1790124;80;21471;-70
2020/12/22 03:31:16;;;;;;;102.50;39.03;;;;;;;-3.51;100.00;100764.00;1790071;80;21154;-69
2020/12/22 03:33:44;;;;;;;88.65;35.15;;;;;;;-3.51;100.00;100771.88;1790073;80;20915;-70
2020/12/22 03:36:12;;;;;;;91.97;36.15;;;;;;;-3.52;100.00;100764.97;1790111;80;21024;-69
2020/12/22 03:38:41;;;;;;;89.80;31.05;;;;;;;-3.51;100.00;100764.48;1790072;80;21129;-69
2020/12/22 03:41:09;;;;;;;101.27;37.80;;;;;;;-3.51;100.00;100764.48;1790061;80;21045;-70
2020/12/22 03:43:38;;;;;;;99.28;40.25;;;;;;;-3.51;100.00;100769.25;1790218;80;21602;-71
2020/12/22 03:46:07;;;;;;;89.52;37.80;;;;;;;-3.50;100.00;100769.61;1791372;79;21107;-71
2020/12/22 03:48:35;;;;;;;87.25;35.03;;;;;;;-3.51;100.00;100780.23;1793830;80;21495;-69
2020/12/22 03:51:04;;;;;;;84.83;34.67;;;;;;;-3.53;100.00;100773.83;1793594;80;21019;-69
2020/12/22 03:53:32;;;;;;;81.05;34.67;;;;;;;-3.54;100.00;100768.20;1793639;80;20995;-70
2020/12/22 03:56:01;;;;;;;88.92;35.50;;;;;;;-3.54;100.00;100770.83;1793760;80;21657;-70
2020/12/22 03:58:30;;;;;;;83.95;33.75;;;;;;;-3.53;100.00;100759.39;1793817;79;28615;-69
2020/12/22 04:00:58;;;;;;;64.27;29.05;;;;;;;-3.51;100.00;100763.17;1793738;80;21452;-70
2020/12/22 04:03:27;;;;;;;;;;;;;;;-3.51;100.00;100770.56;1796384;80;20928;-70
2020/12/22 04:05:55;;;;;;;86.00;36.38;;;;;;;-3.53;100.00;100765.95;1793683;80;20150;-69
2020/12/22 04:08:25;;;;;;;82.50;32.73;;;;;;;-3.54;100.00;100757.70;1793639;79;21461;-69
2020/12/22 04:10:55;;;;;;;82.47;34.45;;;;;;;-3.55;100.00;100753.44;1793855;79;21590;-69
2020/12/22 04:13:24;;;;;;;57.13;22.58;;;;;;;-3.55;100.00;100747.33;1793695;80;20941;-70
2020/12/22 04:15:52;;;;;;;80.17;34.63;;;;;;;-3.56;100.00;100741.25;1793795;80;21620;-69
2020/12/22 04:18:20;;;;;;;78.62;36.90;;;;;;;-3.55;100.00;100737.69;1793928;79;21535;-70
2020/12/22 04:20:48;;;;;;;76.72;32.80;;;;;;;-3.54;100.00;100739.83;1793774;80;22504;-68
2020/12/22 04:23:17;;;;;;;75.55;32.00;;;;;;;-3.57;100.00;100742.23;1793480;79;20901;-68
2020/12/22 04:25:46;;;;;;;69.58;29.77;;;;;;;-3.57;100.00;100744.86;1793500;79;20996;-69
2020/12/22 04:28:14;;;;;;;67.05;28.95;;;;;;;-3.55;100.00;100742.08;1767354;80;20925;-68
2020/12/22 04:30:42;;;;;;;85.38;34.88;;;;;;;-3.55;100.00;100740.31;1767219;80;21102;-70
2020/12/22 04:33:11;;;;;;;69.37;29.60;;;;;;;-3.55;100.00;100739.45;1793759;80;21190;-69
2020/12/22 04:35:40;;;;;;;71.87;29.98;;;;;;;-3.54;100.00;100735.40;1796788;77;21019;-69
2020/12/22 04:38:09;;;;;;;69.65;31.27;;;;;;;-3.53;100.00;100737.53;1799803;79;21066;-69
2020/12/22 04:40:37;;;;;;;64.82;29.23;;;;;;;-3.54;100.00;100738.02;1801076;79;20915;-69
2020/12/22 04:43:06;;;;;;;72.78;33.60;;;;;;;-3.53;100.00;100737.53;1799034;79;21536;-69
2020/12/22 04:45:34;;;;;;;68.78;26.15;;;;;;;-3.54;100.00;100735.88;1797878;79;22578;-71
2020/12/22 04:48:02;;;;;;;75.85;30.10;;;;;;;-3.56;100.00;100735.19;1790124;79;20940;-70
2020/12/22 04:50:34;;;;;;;69.35;30.57;;;;;;;-3.54;100.00;100742.45;1770563;80;20999;-68
2020/12/22 04:53:02;;;;;;;54.65;24.65;;;;;;;-3.54;100.00;100738.51;1751054;80;21022;-69
2020/12/22 04:55:31;;;;;;;58.15;27.05;;;;;;;-3.57;100.00;100726.98;1781454;80;21612;-69
2020/12/22 04:58:01;;;;;;;59.55;25.57;;;;;;;-3.57;100.00;100730.91;1781508;80;21668;-70
2020/12/22 05:00:29;;;;;;;56.90;24.45;;;;;;;-3.57;100.00;100738.78;1781452;80;20939;-71
2020/12/22 05:02:57;;;;;;;61.68;26.42;;;;;;;-3.58;100.00;100741.87;1770506;80;20940;-71
2020/12/22 05:05:25;;;;;;;58.58;25.70;;;;;;;-3.60;100.00;100737.26;1781526;80;20924;-71
2020/12/22 05:07:53;;;;;;;65.55;28.80;;;;;;;-3.58;100.00;100735.30;1790275;79;21518;-72
2020/12/22 05:10:27;;;;;;;64.70;25.15;;;;;;;-3.57;100.00;100734.84;1790069;80;21640;-69
2020/12/22 05:12:57;;;;;;;54.85;25.30;;;;;;;-3.58;100.00;100729.23;1751277;80;21506;-70
2020/12/22 05:15:26;;;;;;;;;;;;;;;-3.56;100.00;100731.25;1792653;80;20924;-70
2020/12/22 05:17:56;;;;;;;44.05;18.75;;;;;;;-3.56;100.00;100724.20;1751066;80;20136;-70
2020/12/22 05:20:24;;;;;;;49.42;25.23;;;;;;;-3.56;100.00;100728.63;1727189;80;20996;-69
2020/12/22 05:22:53;;;;;;;52.67;24.45;;;;;;;-3.55;100.00;100728.95;1781474;80;21571;-69
2020/12/22 05:25:21;;;;;;;44.55;19.65;;;;;;;-3.57;100.00;100732.22;1770309;80;21054;-70
2020/12/22 05:27:52;;;;;;;51.88;23.35;;;;;;;-3.58;100.00;100733.17;1751331;80;21740;-70
2020/12/22 05:30:21;;;;;;;45.17;22.25;;;;;;;-3.58;100.00;100731.37;1781388;80;21039;-70
2020/12/22 05:32:51;;;;;;;49.88;24.15;;;;;;;-3.57;100.00;100734.36;1781365;80;21055;-70
2020/12/22 05:35:19;;;;;;;53.83;24.32;;;;;;;-3.58;100.00;100728.74;1781406;80;21120;-70
2020/12/22 05:37:50;;;;;;;50.95;22.77;;;;;;;-3.58;100.00;100723.98;1751544;80;21026;-71
2020/12/22 05:40:20;;;;;;;52.83;26.55;;;;;;;-3.57;100.00;100727.80;1770526;80;21542;-72
2020/12/22 05:42:49;;;;;;;51.23;23.12;;;;;;;-3.54;100.00;100737.20;1789927;80;20869;-71
2020/12/22 05:45:17;;;;;;;33.30;14.13;;;;;;;-3.54;100.00;100734.58;1751266;80;20987;-70
2020/12/22 05:47:45;;;;;;;44.77;21.07;;;;;;;-3.55;100.00;100732.89;1786463;80;21780;-71
2020/12/22 05:50:15;;;;;;;52.20;24.20;;;;;;;-3.56;100.00;100728.13;1787032;80;20888;-68
2020/12/22 05:52:44;;;;;;;46.90;24.70;;;;;;;-3.55;100.00;100728.95;1795814;80;20976;-69
2020/12/22 05:55:13;;;;;;;31.05;17.70;;;;;;;-3.52;100.00;100730.03;1795974;80;21624;-70
2020/12/22 05:57:40;;;;;;;;;;;;;;;-3.53;100.00;100727.03;1795776;80;21136;-68
2020/12/22 06:00:16;;;;;;;33.78;18.05;;;;;;;-3.51;100.00;100729.05;1758971;80;22008;-70
2020/12/22 06:02:44;;;;;;;37.75;19.40;;;;;;;-3.51;100.00;100726.42;1787077;80;21054;-70
2020/12/22 06:05:13;;;;;;;35.83;16.62;;;;;;;-3.51;100.00;100729.05;1795752;79;20939;-70
2020/12/22 06:07:42;;;;;;;39.30;19.82;;;;;;;-3.51;100.00;100725.94;1795910;80;21537;-69
2020/12/22 06:10:09;;;;;;;;;;;;;;;-3.51;100.00;100722.00;1736475;80;21232;-71
2020/12/22 06:12:39;;;;;;;37.13;17.12;;;;;;;-3.50;100.00;100732.04;1758808;80;21614;-69
2020/12/22 06:15:07;;;;;;;34.73;18.73;;;;;;;-3.50;100.00;100726.30;1787105;80;20963;-69
2020/12/22 06:17:35;;;;;;;34.15;18.30;;;;;;;-3.50;100.00;100730.23;1795908;80;20927;-70
2020/12/22 06:20:06;;;;;;;36.90;18.82;;;;;;;-3.48;100.00;100727.46;1795872;80;20987;-71
2020/12/22 06:22:34;;;;;;;35.92;20.32;;;;;;;-3.51;100.00;100723.80;1795813;80;21029;-70
2020/12/22 06:25:03;;;;;;;36.68;18.80;;;;;;;-3.50;100.00;100720.23;1787259;80;21635;-70
2020/12/22 06:27:32;;;;;;;32.75;17.23;;;;;;;-3.50;100.00;100728.11;1787068;80;21019;-72
2020/12/22 06:30:03;;;;;;;30.85;14.55;;;;;;;-3.52;100.00;100728.71;1785067;80;21560;-69
2020/12/22 06:32:31;;;;;;;37.53;18.98;;;;;;;-3.54;100.00;100725.39;1786704;80;21022;-72
2020/12/22 06:35:30;;;;;;;33.25;17.12;;;;;;;-3.53;100.00;100730.97;1787158;80;21845;-70
2020/12/22 06:37:59;;;;;;;34.75;18.77;;;;;;;-3.56;100.00;100728.13;1795592;80;21192;-70
2020/12/22 06:43:42;;;;;;;32.63;17.00;;;;;;;-3.53;100.00;100729.66;1851912;77;28490;-69
2020/12/22 06:46:37;;;;;;;36.55;18.35;;;;;;;-3.58;100.00;100729.23;1819813;78;21046;-70
2020/12/22 06:49:06;;;;;;;31.20;16.73;;;;;;;-3.57;100.00;100732.22;1749974;81;22526;-70
2020/12/22 06:51:37;;;;;;;36.10;20.32;;;;;;;-3.63;100.00;100712.57;1819359;78;20987;-71
2020/12/22 06:54:19;;;;;;;35.33;17.73;;;;;;;-3.59;100.00;100722.34;1749894;82;20960;-71
2020/12/22 06:56:52;;;;;;;25.75;13.70;;;;;;;-3.56;100.00;100718.13;1819959;78;21062;-71
2020/12/22 06:59:53;;;;;;;31.68;17.73;;;;;;;-3.59;100.00;100710.03;1749653;81;20876;-70
2020/12/22 07:02:36;;;;;;;25.62;14.80;;;;;;;-3.63;100.00;100712.57;1704614;81;21200;-69
2020/12/22 07:05:11;;;;;;;32.15;17.20;;;;;;;-3.57;100.00;100706.80;1814323;78;28640;-68
2020/12/22 07:08:00;;;;;;;30.52;16.23;;;;;;;-3.58;100.00;100709.55;1710795;82;21465;-70
2020/12/22 07:10:32;;;;;;;29.35;18.50;;;;;;;-3.57;100.00;100715.16;1733881;80;21208;-69
2020/12/22 07:13:03;;;;;;;28.27;14.30;;;;;;;-3.59;100.00;100703.96;1739173;82;20937;-71
2020/12/22 07:15:54;;;;;;;32.58;17.90;;;;;;;-3.64;100.00;100705.67;1793628;79;20990;-70
2020/12/22 07:18:43;;;;;;;28.73;16.57;;;;;;;-3.61;100.00;100708.52;1852087;77;28379;-69
2020/12/22 07:21:16;;;;;;;32.03;18.98;;;;;;;-3.66;100.00;100714.98;1816153;78;20995;-71
2020/12/22 07:24:02;;;;;;;25.68;15.58;;;;;;;-3.66;100.00;100707.59;1749892;81;21373;-71
2020/12/22 07:26:30;;;;;;;30.40;14.93;;;;;;;-3.67;100.00;100702.02;1819657;78;20999;-70
2020/12/22 07:29:03;;;;;;;38.20;19.10;;;;;;;-3.68;100.00;100708.20;1750268;81;20956;-71
2020/12/22 07:31:42;;;;;;;29.45;17.12;;;;;;;-3.66;100.00;100704.48;1821392;78;20983;-71
2020/12/22 07:34:19;;;;;;;30.68;18.92;;;;;;;-3.66;100.00;100710.22;1752738;80;20988;-72
2020/12/22 07:37:11;;;;;;;24.80;13.83;;;;;;;-3.64;100.00;100707.47;1820108;78;21010;-70
2020/12/22 07:39:44;;;;;;;23.00;14.47;;;;;;;-3.64;100.00;100706.16;1749921;82;20947;-70
2020/12/22 07:42:35;;;;;;;;;;;;;;;;;;;;;
2020/12/22 07:45:08;;;;;;;34.55;16.85;;;;;;;-3.67;100.00;100713.33;1767918;80;21538;-72
2020/12/22 07:47:36;;;;;;;22.65;13.70;;;;;;;-3.65;100.00;100706.62;1768255;81;21239;-71
2020/12/22 07:50:16;;;;;;;28.92;15.38;;;;;;;-3.65;100.00;100711.86;1768623;81;22508;-71
2020/12/22 07:53:01;;;;;;;31.07;16.20;;;;;;;-3.61;100.00;100709.83;1851573;77;28567;-69
2020/12/22 07:55:40;;;;;;;32.08;18.35;;;;;;;-3.66;100.00;100713.67;1819982;78;21612;-70
2020/12/22 07:58:11;;;;;;;28.98;14.95;;;;;;;-3.63;100.00;100713.06;1818823;78;21354;-70
2020/12/22 08:00:39;;;;;;;46.55;23.95;;;;;;;-3.61;100.00;100709.33;1787364;78;21015;-70
2020/12/22 08:03:15;;;;;;;67.85;29.42;;;;;;;-3.58;100.00;100710.86;1748806;81;21082;-70
2020/12/22 08:06:00;;;;;;;209.45;68.75;;;;;;;-3.56;100.00;100705.00;1817868;78;21778;-68
2020/12/22 08:08:29;;;;;;;70.20;32.50;;;;;;;-3.53;100.00;100695.08;1748611;81;21086;-69
2020/12/22 08:11:06;;;;;;;46.18;24.20;;;;;;;-3.53;100.00;100700.78;1818304;78;23133;-70
2020/12/22 08:13:46;;;;;;;52.40;26.45;;;;;;;-3.46;100.00;100696.66;1850382;77;28760;-70
2020/12/22 08:16:15;;;;;;;62.30;36.73;;;;;;;-3.56;100.00;100684.00;1819390;78;21625;-69
2020/12/22 08:18:43;;;;;;;48.98;28.27;;;;;;;-3.57;100.00;100689.74;1749296;82;22293;-69
2020/12/22 08:21:11;;;;;;;43.28;24.87;;;;;;;-3.53;100.00;100681.10;1818797;78;20943;-71
2020/12/22 08:23:39;;;;;;;34.80;21.25;;;;;;;-3.53;100.00;100679.33;1819338;78;21181;-68
2020/12/22 08:26:09;;;;;;;43.92;27.50;;;;;;;-3.54;100.00;100680.77;1749177;82;20994;-72
2020/12/22 08:28:37;;;;;;;39.00;22.30;;;;;;;-3.52;100.00;100679.67;1819127;78;21672;-69
2020/12/22 08:31:14;;;;;;;31.17;16.32;;;;;;;-3.50;100.00;100676.43;1749049;82;21656;-71
2020/12/22 08:33:42;;;;;;;31.02;15.85;;;;;;;-3.51;100.00;100669.50;1818919;78;21647;-72
2020/12/22 08:36:11;;;;;;;34.05;16.77;;;;;;;-3.52;100.00;100670.97;1818948;78;20987;-69
2020/12/22 08:39:34;;;;;;;97.20;40.15;;;;;;;-3.50;100.00;100675.61;1728778;82;21013;-71
2020/12/22 08:42:32;;;;;;;139.57;45.33;;;;;;;-3.46;100.00;100670.41;1731320;82;21488;-71
2020/12/22 08:45:10;;;;;;;385.25;133.00;;;;;;;-3.48;100.00;100672.34;1731120;82;22491;-70
2020/12/22 08:47:38;;;;;;;187.32;72.72;;;;;;;-3.50;100.00;100671.18;1646823;84;21156;-70
2020/12/22 08:50:08;;;;;;;123.62;49.73;;;;;;;-3.52;100.00;100667.86;1677498;82;21135;-70
2020/12/22 08:52:37;;;;;;;53.87;28.25;;;;;;;-3.50;100.00;100659.38;1731792;82;21037;-71
2020/12/22 08:55:10;;;;;;;53.73;31.82;;;;;;;-3.49;100.00;100654.94;1731858;82;21160;-71
2020/12/22 08:57:37;;;;;;;57.23;30.80;;;;;;;-3.46;100.00;100654.17;1731688;82;21200;-71
2020/12/22 09:00:15;;;;;;;51.18;24.27;;;;;;;-3.46;100.00;100644.98;1731558;82;21160;-69
2020/12/22 09:02:52;;;;;;;55.00;31.85;;;;;;;-3.48;100.00;100640.84;1731380;82;21181;-71
2020/12/22 09:05:20;;;;;;;52.08;29.65;;;;;;;-3.51;100.00;100639.80;1703433;82;21077;-72
2020/12/22 09:08:04;;;;;;;41.60;23.62;;;;;;;-3.50;100.00;100638.86;1731773;82;21152;-71
2020/12/22 09:10:32;;;;;;;60.10;36.28;;;;;;;-3.46;100.00;100625.79;1731540;82;21226;-72
2020/12/22 09:13:12;;;;;;;38.05;19.98;;;;;;;-3.45;100.00;100616.97;1731628;82;21175;-71
2020/12/22 09:15:55;;;;;;;41.53;25.15;;;;;;;-3.45;100.00;100613.03;1731454;82;21540;-72
2020/12/22 09:18:22;;;;;;;33.13;19.73;;;;;;;-3.44;100.00;100610.73;1731866;82;21240;-72
2020/12/22 09:21:04;;;;;;;33.30;19.65;;;;;;;-3.42;100.00;100610.13;1696521;84;21160;-71
2020/12/22 09:23:44;;;;;;;37.98;22.10;;;;;;;-3.36;100.00;100614.80;1731449;82;21426;-72
2020/12/22 09:26:13;;;;;;;36.85;21.23;;;;;;;-3.36;100.00;100606.11;1731380;82;21175;-70
2020/12/22 09:28:46;;;;;;;40.45;23.85;;;;;;;-3.34;100.00;100606.31;1731028;82;21139;-70
2020/12/22 09:31:26;;;;;;;35.10;18.25;;;;;;;-3.30;100.00;100602.45;1731071;82;21152;-70
2020/12/22 09:33:54;;;;;;;31.87;19.07;;;;;;;-3.27;100.00;100595.61;1731178;82;21152;-72
2020/12/22 09:36:24;;;;;;;52.13;20.85;;;;;;;-3.27;100.00;100602.17;1726410;82;21223;-71
2020/12/22 09:38:52;;;;;;;28.57;17.77;;;;;;;-3.29;100.00;100598.03;1720100;80;21144;-71
2020/12/22 09:41:21;;;;;;;37.75;20.12;;;;;;;-3.32;100.00;100603.08;1718504;83;21085;-72
2020/12/22 09:43:49;;;;;;;27.10;16.80;;;;;;;-3.29;100.00;100598.84;1717871;83;21164;-71
2020/12/22 09:46:21;;;;;;;32.10;19.32;;;;;;;-3.28;100.00;100600.53;1717267;83;21171;-71
2020/12/22 09:48:50;;;;;;;26.60;15.53;;;;;;;-3.32;100.00;100595.20;1718381;83;21371;-69
2020/12/22 09:51:17;;;;;;;28.00;17.60;;;;;;;-3.33;100.00;100590.07;1718524;83;20947;-72
2020/12/22 09:53:47;;;;;;;35.10;17.85;;;;;;;-3.36;100.00;100589.05;1718379;83;21220;-71
2020/12/22 09:56:15;;;;;;;39.48;22.87;;;;;;;-3.35;100.00;100597.28;1718911;83;21589;-72
2020/12/22 09:58:43;;;;;;;26.10;14.87;;;;;;;-3.33;100.00;100583.51;1717711;83;21196;-72
2020/12/22 10:01:14;;;;;;;47.85;27.67;;;;;;;-3.36;100.00;100575.42;1718923;83;21266;-70
2020/12/22 10:03:42;;;;;;;38.28;23.10;;;;;;;-3.36;100.00;100573.29;1718820;83;20943;-71
2020/12/22 10:06:10;;;;;;;;;;;;;;;-3.29;100.00;100575.70;1721640;83;21473;-70
2020/12/22 10:08:40;;;;;;;46.98;24.20;;;;;;;-3.23;100.00;100562.04;1719260;83;20163;-71
2020/12/22 10:11:08;;;;;;;104.00;37.95;;;;;;;-3.19;100.00;100546.81;1718827;83;21784;-70
2020/12/22 10:13:36;;;;;;;33.28;19.60;;;;;;;-3.17;100.00;100540.45;1719398;83;22532;-70
2020/12/22 10:16:06;;;;;;;153.02;53.98;;;;;;;-3.21;100.00;100543.50;1719198;83;21018;-71
2020/12/22 10:18:35;;;;;;;43.68;22.60;;;;;;;-3.24;100.00;100548.05;1718845;83;21026;-71
2020/12/22 10:21:08;;;;;;;51.30;23.83;;;;;;;-3.20;100.00;100542.55;1719148;83;21018;-70
2020/12/22 10:23:37;;;;;;;44.70;22.45;;;;;;;-3.18;100.00;100543.24;1718778;83;21679;-71
2020/12/22 10:26:07;;;;;;;71.55;31.95;;;;;;;-3.21;100.00;100529.88;1719235;83;21606;-73
2020/12/22 10:28:37;;;;;;;43.50;21.25;;;;;;;-3.20;100.00;100526.80;1719806;83;21168;-72
2020/12/22 10:31:20;;;;;;;54.50;24.27;;;;;;;-3.24;100.00;100522.29;1722000;80;21090;-69
2020/12/22 10:34:31;;;;;;;137.45;48.45;;;;;;;-3.29;100.00;100523.20;1719502;83;21148;-69
2020/12/22 10:37:32;;;;;;;122.13;42.90;;;;;;;-3.25;100.00;100529.34;1851892;77;27955;-72
2020/12/22 10:40:01;;;;;;;67.15;23.90;;;;;;;-3.30;100.00;100517.12;1819656;78;21034;-71
2020/12/22 10:42:29;;;;;;;338.98;115.90;;;;;;;-3.32;100.00;100516.43;1819245;78;22148;-71
2020/12/22 10:44:57;;;;;;;61.02;25.57;;;;;;;-3.32;100.00;100518.23;1748886;82;21019;-70
2020/12/22 10:47:26;;;;;;;110.68;32.05;;;;;;;-3.30;100.00;100516.30;1791542;78;21035;-71
2020/12/22 10:50:01;;;;;;;84.40;29.48;;;;;;;-3.34;100.00;100508.35;1775607;80;21027;-70
2020/12/22 10:52:29;;;;;;;21.73;12.95;;;;;;;-3.37;100.00;100515.20;1775169;80;21035;-71
2020/12/22 10:54:59;;;;;;;27.22;17.67;;;;;;;-3.38;100.00;100501.71;1775672;80;21629;-72
2020/12/22 10:57:35;;;;;;;28.02;16.27;;;;;;;-3.42;100.00;100493.80;1775656;80;20936;-72
2020/12/22 11:00:06;;;;;;;18.23;10.88;;;;;;;-3.43;100.00;100498.19;1775195;80;21075;-72
2020/12/22 11:02:35;;;;;;;53.98;30.77;;;;;;;-3.45;100.00;100494.91;1745535;80;21150;-72
2020/12/22 11:05:04;;;;;;;36.48;23.75;;;;;;;-3.50;100.00;100487.45;1775786;80;21130;-70
2020/12/22 11:07:42;;;;;;;20.43;14.07;;;;;;;-3.54;100.00;100489.17;1775470;80;21871;-70
2020/12/22 11:10:05;;;;;;;21.77;15.15;;;;;;;-3.58;100.00;100493.03;1774699;79;21138;-73
2020/12/22 11:12:34;;;;;;;27.65;16.62;;;;;;;-3.59;100.00;100491.39;1775281;80;21236;-71
2020/12/22 11:15:12;;;;;;;41.55;22.05;;;;;;;-3.55;100.00;100484.87;1826237;78;28212;-69
2020/12/22 11:17:42;;;;;;;56.28;27.17;;;;;;;-3.60;100.00;100491.02;1786148;80;21055;-69
2020/12/22 11:20:10;;;;;;;181.45;55.28;;;;;;;-3.61;100.00;100482.33;1786645;80;21634;-71
2020/12/22 11:22:38;;;;;;;165.10;53.17;;;;;;;-3.63;100.00;100475.08;1786721;80;21608;-71
2020/12/22 11:25:08;;;;;;;300.25;93.20;;;;;;;-3.60;100.00;100474.83;1784365;80;21023;-69
2020/12/22 11:27:37;;;;;;;343.88;104.07;;;;;;;-3.59;100.00;100470.39;1786703;80;21124;-72
2020/12/22 11:30:05;;;;;;;109.10;41.08;;;;;;;-3.59;100.00;100463.83;1786505;80;21667;-70